sensor_id;sensor_type;location;lat;lon;timestamp;P1;P2;P0
83597;PMS5003;73565;45.774;15.892;2024-02-23T00:01:30;0;0;0
83597;PMS5003;73565;45.774;15.892;2024-02-23T00:03:30;0;0;0
83597;PMS5003;73565;45.774;15.892;2024-02-23T00:05:30;0;0;0
83597;PMS5003;73565;45.774;15.892;2024-02-23T00:07:30;0;0;0
83597;PMS5003;73565;45.774;15.892;2024-02-23T00:09:30;0;0;0
83597;PMS5003;73565;45.774;15.892;2024-02-23T00:11:30;0;0;0
83597;PMS5003;73565;45.774;15.892;2024-02-23T00:13:30;0;0;0
83597;PMS5003;73565;45.774;15.892;2024-02-23T00:15:30;0;0;0
83597;PMS5003;73565;45.774;15.892;2024-02-23T00:17:30;0;0;0
83597;PMS5003;73565;45.774;15.892;2024-02-23T00:19:30;0;0;0
83597;PMS5003;73565;45.774;15.892;2024-02-23T00:21:30;0;0;0
83597;PMS5003;73565;45.774;15.892;2024-02-23T00:23:30;1;0;0
83597;PMS5003;73565;45.774;15.892;2024-02-23T00:25:30;0;0;0
83597;PMS5003;73565;45.774;15.892;2024-02-23T00:27:30;0;0;0
83597;PMS5003;73565;45.774;15.892;2024-02-23T00:29:30;0;0;0
83597;PMS5003;73565;45.774;15.892;2024-02-23T00:31:30;0;0;0
83597;PMS5003;73565;45.774;15.892;2024-02-23T00:33:30;0;0;0
83597;PMS5003;73565;45.774;15.892;2024-02-23T00:35:30;0;0;0
83597;PMS5003;73565;45.774;15.892;2024-02-23T00:37:30;0;0;0
83597;PMS5003;73565;45.774;15.892;2024-02-23T00:39:30;0;0;0
83597;PMS5003;73565;45.774;15.892;2024-02-23T00:41:30;0;0;0
83597;PMS5003;73565;45.774;15.892;2024-02-23T00:43:30;0;0;0
83597;PMS5003;73565;45.774;15.892;2024-02-23T00:45:30;0;0;0
83597;PMS5003;73565;45.774;15.892;2024-02-23T00:47:30;0;0;0
83597;PMS5003;73565;45.774;15.892;2024-02-23T00:49:30;0;0;0
83597;PMS5003;73565;45.774;15.892;2024-02-23T00:51:30;0;0;0
83597;PMS5003;73565;45.774;15.892;2024-02-23T00:53:30;0;0;0
83597;PMS5003;73565;45.774;15.892;2024-02-23T00:55:30;0;0;0
83597;PMS5003;73565;45.774;15.892;2024-02-23T00:57:30;0;0;0
83597;PMS5003;73565;45.774;15.892;2024-02-23T00:59:30;0;0;0
83597;PMS5003;73565;45.774;15.892;2024-02-23T01:01:30;0;0;0
83597;PMS5003;73565;45.774;15.892;2024-02-23T01:03:30;0;0;0
83597;PMS5003;73565;45.774;15.892;2024-02-23T01:05:30;0;0;0
83597;PMS5003;73565;45.774;15.892;2024-02-23T01:07:30;0;0;0
83597;PMS5003;73565;45.774;15.892;2024-02-23T01:09:30;0;0;0
83597;PMS5003;73565;45.774;15.892;2024-02-23T01:11:30;0;0;0
83597;PMS5003;73565;45.774;15.892;2024-02-23T01:13:30;0;0;0
83597;PMS5003;73565;45.774;15.892;2024-02-23T01:15:30;0;0;0
83597;PMS5003;73565;45.774;15.892;2024-02-23T01:17:30;0;0;0
83597;PMS5003;73565;45.774;15.892;2024-02-23T01:19:30;0;0;0
83597;PMS5003;73565;45.774;15.892;2024-02-23T01:21:30;0;0;0
83597;PMS5003;73565;45.774;15.892;2024-02-23T01:23:30;0;0;0
83597;PMS5003;73565;45.774;15.892;2024-02-23T01:25:30;0;0;0
83597;PMS5003;73565;45.774;15.892;2024-02-23T01:27:30;0;0;0
83597;PMS5003;73565;45.774;15.892;2024-02-23T01:29:30;0;0;0
83597;PMS5003;73565;45.774;15.892;2024-02-23T01:31:30;0;0;0
83597;PMS5003;73565;45.774;15.892;2024-02-23T01:33:30;0;0;0
83597;PMS5003;73565;45.774;15.892;2024-02-23T01:35:30;0;0;0
83597;PMS5003;73565;45.774;15.892;2024-02-23T01:38:06;0;0;0
83597;PMS5003;73565;45.774;15.892;2024-02-23T01:40:00;0;0;0
83597;PMS5003;73565;45.774;15.892;2024-02-23T01:42:00;0;0;0
83597;PMS5003;73565;45.774;15.892;2024-02-23T01:44:00;0;0;0
83597;PMS5003;73565;45.774;15.892;2024-02-23T01:46:00;0;0;0
83597;PMS5003;73565;45.774;15.892;2024-02-23T01:48:00;0;0;0
83597;PMS5003;73565;45.774;15.892;2024-02-23T01:50:00;0;0;0
83597;PMS5003;73565;45.774;15.892;2024-02-23T01:52:00;0;0;0
83597;PMS5003;73565;45.774;15.892;2024-02-23T01:53:59;0;0;0
83597;PMS5003;73565;45.774;15.892;2024-02-23T01:56:00;0;0;0
83597;PMS5003;73565;45.774;15.892;2024-02-23T01:58:00;0;0;0
83597;PMS5003;73565;45.774;15.892;2024-02-23T02:00:00;0;0;0
83597;PMS5003;73565;45.774;15.892;2024-02-23T02:02:00;0;0;0
83597;PMS5003;73565;45.774;15.892;2024-02-23T02:04:00;0;0;0
83597;PMS5003;73565;45.774;15.892;2024-02-23T02:06:00;0;0;0
83597;PMS5003;73565;45.774;15.892;2024-02-23T02:08:00;0;0;0
83597;PMS5003;73565;45.774;15.892;2024-02-23T02:09:59;0;0;0
83597;PMS5003;73565;45.774;15.892;2024-02-23T02:11:59;0;0;0
83597;PMS5003;73565;45.774;15.892;2024-02-23T02:14:00;0;0;0
83597;PMS5003;73565;45.774;15.892;2024-02-23T02:16:00;0;0;0
83597;PMS5003;73565;45.774;15.892;2024-02-23T02:18:00;0;0;0
83597;PMS5003;73565;45.774;15.892;2024-02-23T02:20:11;0;0;0
83597;PMS5003;73565;45.774;15.892;2024-02-23T02:22:08;0;0;0
83597;PMS5003;73565;45.774;15.892;2024-02-23T02:24:08;0;0;0
83597;PMS5003;73565;45.774;15.892;2024-02-23T02:26:08;0;0;0
83597;PMS5003;73565;45.774;15.892;2024-02-23T02:28:10;0;0;0
83597;PMS5003;73565;45.774;15.892;2024-02-23T02:30:08;0;0;0
83597;PMS5003;73565;45.774;15.892;2024-02-23T02:32:08;0;0;0
83597;PMS5003;73565;45.774;15.892;2024-02-23T02:34:08;0;0;0
83597;PMS5003;73565;45.774;15.892;2024-02-23T02:36:08;0;0;0
83597;PMS5003;73565;45.774;15.892;2024-02-23T02:38:08;0;0;0
83597;PMS5003;73565;45.774;15.892;2024-02-23T02:40:08;0;0;0
83597;PMS5003;73565;45.774;15.892;2024-02-23T02:42:08;0;0;0
83597;PMS5003;73565;45.774;15.892;2024-02-23T02:44:08;0;0;0
83597;PMS5003;73565;45.774;15.892;2024-02-23T02:46:08;0;0;0
83597;PMS5003;73565;45.774;15.892;2024-02-23T02:48:08;0;0;0
83597;PMS5003;73565;45.774;15.892;2024-02-23T02:50:08;0;0;0
83597;PMS5003;73565;45.774;15.892;2024-02-23T02:52:08;0;0;0
83597;PMS5003;73565;45.774;15.892;2024-02-23T02:54:08;0;0;0
83597;PMS5003;73565;45.774;15.892;2024-02-23T02:58:16;0;0;0
83597;PMS5003;73565;45.774;15.892;2024-02-23T03:00:16;0;0;0
83597;PMS5003;73565;45.774;15.892;2024-02-23T03:02:16;0;0;0
83597;PMS5003;73565;45.774;15.892;2024-02-23T03:04:16;0;0;0
83597;PMS5003;73565;45.774;15.892;2024-02-23T03:06:16;0;0;0
83597;PMS5003;73565;45.774;15.892;2024-02-23T03:08:16;0;0;0
83597;PMS5003;73565;45.774;15.892;2024-02-23T03:10:16;0;0;0
83597;PMS5003;73565;45.774;15.892;2024-02-23T03:12:16;0;0;0
83597;PMS5003;73565;45.774;15.892;2024-02-23T03:14:16;0;0;0
83597;PMS5003;73565;45.774;15.892;2024-02-23T03:16:18;0;0;0
83597;PMS5003;73565;45.774;15.892;2024-02-23T03:18:16;0;0;0
83597;PMS5003;73565;45.774;15.892;2024-02-23T03:20:16;0;0;0
83597;PMS5003;73565;45.774;15.892;2024-02-23T03:22:16;0;0;0
83597;PMS5003;73565;45.774;15.892;2024-02-23T03:24:16;0;0;0
83597;PMS5003;73565;45.774;15.892;2024-02-23T03:26:16;0;0;0
83597;PMS5003;73565;45.774;15.892;2024-02-23T03:28:16;0;0;0
83597;PMS5003;73565;45.774;15.892;2024-02-23T03:30:16;0;0;0
83597;PMS5003;73565;45.774;15.892;2024-02-23T03:32:16;0;0;0
83597;PMS5003;73565;45.774;15.892;2024-02-23T03:34:16;0;0;0
83597;PMS5003;73565;45.774;15.892;2024-02-23T03:36:15;0;0;0
83597;PMS5003;73565;45.774;15.892;2024-02-23T03:38:16;0;0;0
83597;PMS5003;73565;45.774;15.892;2024-02-23T03:40:16;0;0;0
83597;PMS5003;73565;45.774;15.892;2024-02-23T03:42:16;0;0;0
83597;PMS5003;73565;45.774;15.892;2024-02-23T03:44:16;0;0;0
83597;PMS5003;73565;45.774;15.892;2024-02-23T03:46:16;0;0;0
83597;PMS5003;73565;45.774;15.892;2024-02-23T03:48:16;0;0;0
83597;PMS5003;73565;45.774;15.892;2024-02-23T03:50:16;0;0;0
83597;PMS5003;73565;45.774;15.892;2024-02-23T03:52:16;0;0;0
83597;PMS5003;73565;45.774;15.892;2024-02-23T03:54:16;0;0;0
83597;PMS5003;73565;45.774;15.892;2024-02-23T03:56:16;0;0;0
83597;PMS5003;73565;45.774;15.892;2024-02-23T03:58:16;0;0;0
83597;PMS5003;73565;45.774;15.892;2024-02-23T04:00:17;0;0;0
83597;PMS5003;73565;45.774;15.892;2024-02-23T04:02:16;0;0;0
83597;PMS5003;73565;45.774;15.892;2024-02-23T04:04:15;0;0;0
83597;PMS5003;73565;45.774;15.892;2024-02-23T04:06:16;0;0;0
83597;PMS5003;73565;45.774;15.892;2024-02-23T04:08:16;0;0;0
83597;PMS5003;73565;45.774;15.892;2024-02-23T04:10:16;0;0;0
83597;PMS5003;73565;45.774;15.892;2024-02-23T04:12:16;0;0;0
83597;PMS5003;73565;45.774;15.892;2024-02-23T04:14:16;0;0;0
83597;PMS5003;73565;45.774;15.892;2024-02-23T04:16:16;0;0;0
83597;PMS5003;73565;45.774;15.892;2024-02-23T04:18:16;0;0;0
83597;PMS5003;73565;45.774;15.892;2024-02-23T04:20:15;0;0;0
83597;PMS5003;73565;45.774;15.892;2024-02-23T04:22:16;0;0;0
83597;PMS5003;73565;45.774;15.892;2024-02-23T04:24:16;0;0;0
83597;PMS5003;73565;45.774;15.892;2024-02-23T04:26:15;0;0;0
83597;PMS5003;73565;45.774;15.892;2024-02-23T04:28:15;0;0;0
83597;PMS5003;73565;45.774;15.892;2024-02-23T04:30:16;1;0;0
83597;PMS5003;73565;45.774;15.892;2024-02-23T04:32:15;0;0;0
83597;PMS5003;73565;45.774;15.892;2024-02-23T04:34:16;0;0;0
83597;PMS5003;73565;45.774;15.892;2024-02-23T04:36:18;0;0;0
83597;PMS5003;73565;45.774;15.892;2024-02-23T04:38:16;0;0;0
83597;PMS5003;73565;45.774;15.892;2024-02-23T04:40:16;0;0;0
83597;PMS5003;73565;45.774;15.892;2024-02-23T04:42:16;0;0;0
83597;PMS5003;73565;45.774;15.892;2024-02-23T04:44:15;0;0;0
83597;PMS5003;73565;45.774;15.892;2024-02-23T04:46:16;0;0;0
83597;PMS5003;73565;45.774;15.892;2024-02-23T04:48:15;0;0;0
83597;PMS5003;73565;45.774;15.892;2024-02-23T04:50:16;0;0;0
83597;PMS5003;73565;45.774;15.892;2024-02-23T04:52:15;0;0;0
83597;PMS5003;73565;45.774;15.892;2024-02-23T04:54:16;0;0;0
83597;PMS5003;73565;45.774;15.892;2024-02-23T04:56:15;0;0;0
83597;PMS5003;73565;45.774;15.892;2024-02-23T04:58:16;0;0;0
83597;PMS5003;73565;45.774;15.892;2024-02-23T05:00:16;0;0;0
83597;PMS5003;73565;45.774;15.892;2024-02-23T05:00:48;0;0;0
83597;PMS5003;73565;45.774;15.892;2024-02-23T05:01:56;0;0;0
83597;PMS5003;73565;45.774;15.892;2024-02-23T05:03:56;0;0;0
83597;PMS5003;73565;45.774;15.892;2024-02-23T05:05:56;0;0;0
83597;PMS5003;73565;45.774;15.892;2024-02-23T05:07:56;0;0;0
83597;PMS5003;73565;45.774;15.892;2024-02-23T05:09:56;0;0;0
83597;PMS5003;73565;45.774;15.892;2024-02-23T05:11:56;0;0;0
83597;PMS5003;73565;45.774;15.892;2024-02-23T05:13:56;0;0;0
83597;PMS5003;73565;45.774;15.892;2024-02-23T05:15:58;0;0;0
83597;PMS5003;73565;45.774;15.892;2024-02-23T05:17:56;0;0;0
83597;PMS5003;73565;45.774;15.892;2024-02-23T05:19:56;0;0;0
83597;PMS5003;73565;45.774;15.892;2024-02-23T05:21:56;0;0;0
83597;PMS5003;73565;45.774;15.892;2024-02-23T05:23:56;0;0;0
83597;PMS5003;73565;45.774;15.892;2024-02-23T05:25:56;0;0;0
83597;PMS5003;73565;45.774;15.892;2024-02-23T05:27:56;0;0;0
83597;PMS5003;73565;45.774;15.892;2024-02-23T05:29:56;0;0;0
83597;PMS5003;73565;45.774;15.892;2024-02-23T05:31:56;0;0;0
83597;PMS5003;73565;45.774;15.892;2024-02-23T05:33:56;0;0;0
83597;PMS5003;73565;45.774;15.892;2024-02-23T05:35:56;0;0;0
83597;PMS5003;73565;45.774;15.892;2024-02-23T05:37:56;0;0;0
83597;PMS5003;73565;45.774;15.892;2024-02-23T05:39:56;0;0;0
83597;PMS5003;73565;45.774;15.892;2024-02-23T05:41:56;0;0;0
83597;PMS5003;73565;45.774;15.892;2024-02-23T05:43:56;0;0;0
83597;PMS5003;73565;45.774;15.892;2024-02-23T05:45:56;0;0;0
83597;PMS5003;73565;45.774;15.892;2024-02-23T05:47:56;1;1;0
83597;PMS5003;73565;45.774;15.892;2024-02-23T05:49:56;0;0;0
83597;PMS5003;73565;45.774;15.892;2024-02-23T05:51:56;0;0;0
83597;PMS5003;73565;45.774;15.892;2024-02-23T05:53:56;0;0;0
83597;PMS5003;73565;45.774;15.892;2024-02-23T05:55:56;0;0;0
83597;PMS5003;73565;45.774;15.892;2024-02-23T05:57:56;0;0;0
83597;PMS5003;73565;45.774;15.892;2024-02-23T05:59:56;0;0;0
83597;PMS5003;73565;45.774;15.892;2024-02-23T06:01:56;0;0;0
83597;PMS5003;73565;45.774;15.892;2024-02-23T06:03:56;0;0;0
83597;PMS5003;73565;45.774;15.892;2024-02-23T06:05:56;0;0;0
83597;PMS5003;73565;45.774;15.892;2024-02-23T06:07:56;0;0;0
83597;PMS5003;73565;45.774;15.892;2024-02-23T06:09:56;0;0;0
83597;PMS5003;73565;45.774;15.892;2024-02-23T06:11:56;0;0;0
83597;PMS5003;73565;45.774;15.892;2024-02-23T06:13:56;0;0;0
83597;PMS5003;73565;45.774;15.892;2024-02-23T06:15:56;0;0;0
83597;PMS5003;73565;45.774;15.892;2024-02-23T06:17:56;0;0;0
83597;PMS5003;73565;45.774;15.892;2024-02-23T06:19:56;0;0;0
83597;PMS5003;73565;45.774;15.892;2024-02-23T06:21:56;0;0;0
83597;PMS5003;73565;45.774;15.892;2024-02-23T06:23:56;0;0;0
83597;PMS5003;73565;45.774;15.892;2024-02-23T06:25:56;0;0;0
83597;PMS5003;73565;45.774;15.892;2024-02-23T06:27:56;0;0;0
83597;PMS5003;73565;45.774;15.892;2024-02-23T06:29:56;0;0;0
83597;PMS5003;73565;45.774;15.892;2024-02-23T06:31:56;0;0;0
83597;PMS5003;73565;45.774;15.892;2024-02-23T06:33:56;0;0;0
83597;PMS5003;73565;45.774;15.892;2024-02-23T06:35:56;0;0;0
83597;PMS5003;73565;45.774;15.892;2024-02-23T06:37:56;0;0;0
83597;PMS5003;73565;45.774;15.892;2024-02-23T06:39:56;0;0;0
83597;PMS5003;73565;45.774;15.892;2024-02-23T06:41:56;0;0;0
83597;PMS5003;73565;45.774;15.892;2024-02-23T06:43:56;0;0;0
83597;PMS5003;73565;45.774;15.892;2024-02-23T06:45:56;0;0;0
83597;PMS5003;73565;45.774;15.892;2024-02-23T06:47:56;0;0;0
83597;PMS5003;73565;45.774;15.892;2024-02-23T06:49:56;0;0;0
83597;PMS5003;73565;45.774;15.892;2024-02-23T06:51:56;0;0;0
83597;PMS5003;73565;45.774;15.892;2024-02-23T06:53:56;1;1;0
83597;PMS5003;73565;45.774;15.892;2024-02-23T06:55:56;1;0;0
83597;PMS5003;73565;45.774;15.892;2024-02-23T06:57:56;1;1;0
83597;PMS5003;73565;45.774;15.892;2024-02-23T06:59:56;0;0;0
83597;PMS5003;73565;45.774;15.892;2024-02-23T07:02:50;3;2;1
83597;PMS5003;73565;45.774;15.892;2024-02-23T07:04:39;1;1;1
83597;PMS5003;73565;45.774;15.892;2024-02-23T07:06:39;0;0;0
83597;PMS5003;73565;45.774;15.892;2024-02-23T07:08:39;1;1;1
83597;PMS5003;73565;45.774;15.892;2024-02-23T07:10:39;0;0;0
83597;PMS5003;73565;45.774;15.892;2024-02-23T07:12:39;1;0;0
83597;PMS5003;73565;45.774;15.892;2024-02-23T07:14:39;0;0;0
83597;PMS5003;73565;45.774;15.892;2024-02-23T07:16:41;1;1;1
83597;PMS5003;73565;45.774;15.892;2024-02-23T07:18:39;0;0;0
83597;PMS5003;73565;45.774;15.892;2024-02-23T07:20:39;1;1;1
83597;PMS5003;73565;45.774;15.892;2024-02-23T07:22:42;1;1;1
83597;PMS5003;73565;45.774;15.892;2024-02-23T07:24:43;0;0;0
83597;PMS5003;73565;45.774;15.892;2024-02-23T07:26:39;1;1;1
83597;PMS5003;73565;45.774;15.892;2024-02-23T07:28:39;1;1;1
83597;PMS5003;73565;45.774;15.892;2024-02-23T07:30:39;0;0;0
83597;PMS5003;73565;45.774;15.892;2024-02-23T07:32:39;1;1;1
83597;PMS5003;73565;45.774;15.892;2024-02-23T07:34:39;0;0;0
83597;PMS5003;73565;45.774;15.892;2024-02-23T07:36:39;1;1;1
83597;PMS5003;73565;45.774;15.892;2024-02-23T07:38:39;1;1;1
83597;PMS5003;73565;45.774;15.892;2024-02-23T07:40:39;1;1;1
83597;PMS5003;73565;45.774;15.892;2024-02-23T07:42:39;2;2;1
83597;PMS5003;73565;45.774;15.892;2024-02-23T07:44:39;2;2;1
83597;PMS5003;73565;45.774;15.892;2024-02-23T07:46:39;2;2;2
83597;PMS5003;73565;45.774;15.892;2024-02-23T07:48:39;0;0;0
83597;PMS5003;73565;45.774;15.892;2024-02-23T07:50:39;1;1;1
83597;PMS5003;73565;45.774;15.892;2024-02-23T07:52:39;2;2;2
83597;PMS5003;73565;45.774;15.892;2024-02-23T07:54:39;0;0;0
83597;PMS5003;73565;45.774;15.892;2024-02-23T07:56:39;1;1;1
83597;PMS5003;73565;45.774;15.892;2024-02-23T07:58:39;1;1;1
83597;PMS5003;73565;45.774;15.892;2024-02-23T08:00:39;2;2;1
83597;PMS5003;73565;45.774;15.892;2024-02-23T08:02:39;2;2;2
83597;PMS5003;73565;45.774;15.892;2024-02-23T08:03:33;4;3;3
83597;PMS5003;73565;45.774;15.892;2024-02-23T08:04:41;3;3;3
83597;PMS5003;73565;45.774;15.892;2024-02-23T08:06:41;2;2;2
83597;PMS5003;73565;45.774;15.892;2024-02-23T08:08:41;3;3;2
83597;PMS5003;73565;45.774;15.892;2024-02-23T08:10:41;2;2;2
83597;PMS5003;73565;45.774;15.892;2024-02-23T08:12:41;3;3;2
83597;PMS5003;73565;45.774;15.892;2024-02-23T08:14:41;3;3;3
83597;PMS5003;73565;45.774;15.892;2024-02-23T08:16:41;4;3;2
83597;PMS5003;73565;45.774;15.892;2024-02-23T08:18:41;4;4;3
83597;PMS5003;73565;45.774;15.892;2024-02-23T08:20:41;3;3;3
83597;PMS5003;73565;45.774;15.892;2024-02-23T08:22:41;5;5;4
83597;PMS5003;73565;45.774;15.892;2024-02-23T08:24:41;3;3;3
83597;PMS5003;73565;45.774;15.892;2024-02-23T08:26:41;4;4;3
83597;PMS5003;73565;45.774;15.892;2024-02-23T08:28:41;4;4;3
83597;PMS5003;73565;45.774;15.892;2024-02-23T08:30:41;3;3;3
83597;PMS5003;73565;45.774;15.892;2024-02-23T08:32:41;5;5;4
83597;PMS5003;73565;45.774;15.892;2024-02-23T08:34:41;3;3;3
83597;PMS5003;73565;45.774;15.892;2024-02-23T08:36:41;5;5;4
83597;PMS5003;73565;45.774;15.892;2024-02-23T08:38:41;4;4;3
83597;PMS5003;73565;45.774;15.892;2024-02-23T08:40:41;2;2;1
83597;PMS5003;73565;45.774;15.892;2024-02-23T08:42:42;4;4;4
83597;PMS5003;73565;45.774;15.892;2024-02-23T08:44:41;4;4;3
83597;PMS5003;73565;45.774;15.892;2024-02-23T08:46:41;4;3;3
83597;PMS5003;73565;45.774;15.892;2024-02-23T08:48:41;5;5;4
83597;PMS5003;73565;45.774;15.892;2024-02-23T08:50:42;3;3;2
83597;PMS5003;73565;45.774;15.892;2024-02-23T08:52:41;3;3;2
83597;PMS5003;73565;45.774;15.892;2024-02-23T08:54:41;3;3;2
83597;PMS5003;73565;45.774;15.892;2024-02-23T08:56:41;3;2;2
83597;PMS5003;73565;45.774;15.892;2024-02-23T08:58:41;3;3;3
83597;PMS5003;73565;45.774;15.892;2024-02-23T09:00:41;3;3;3
83597;PMS5003;73565;45.774;15.892;2024-02-23T09:02:41;3;3;3
83597;PMS5003;73565;45.774;15.892;2024-02-23T09:04:41;6;4;3
83597;PMS5003;73565;45.774;15.892;2024-02-23T09:06:41;3;3;3
83597;PMS5003;73565;45.774;15.892;2024-02-23T09:11:09;4;4;3
83597;PMS5003;73565;45.774;15.892;2024-02-23T09:13:10;3;3;3
83597;PMS5003;73565;45.774;15.892;2024-02-23T09:15:09;4;4;3
83597;PMS5003;73565;45.774;15.892;2024-02-23T09:17:09;4;4;4
83597;PMS5003;73565;45.774;15.892;2024-02-23T09:19:09;3;3;3
83597;PMS5003;73565;45.774;15.892;2024-02-23T09:21:09;3;3;3
83597;PMS5003;73565;45.774;15.892;2024-02-23T09:23:09;4;4;3
83597;PMS5003;73565;45.774;15.892;2024-02-23T09:25:09;5;4;3
83597;PMS5003;73565;45.774;15.892;2024-02-23T09:27:09;3;3;3
83597;PMS5003;73565;45.774;15.892;2024-02-23T09:29:09;6;6;5
83597;PMS5003;73565;45.774;15.892;2024-02-23T09:31:09;4;4;3
83597;PMS5003;73565;45.774;15.892;2024-02-23T09:33:09;4;4;4
83597;PMS5003;73565;45.774;15.892;2024-02-23T09:35:09;5;4;3
83597;PMS5003;73565;45.774;15.892;2024-02-23T09:35:48;5;5;4
83597;PMS5003;73565;45.774;15.892;2024-02-23T09:37:23;6;6;5
83597;PMS5003;73565;45.774;15.892;2024-02-23T09:39:23;6;6;4
83597;PMS5003;73565;45.774;15.892;2024-02-23T09:41:23;4;4;3
83597;PMS5003;73565;45.774;15.892;2024-02-23T09:43:23;6;6;6
83597;PMS5003;73565;45.774;15.892;2024-02-23T09:45:23;6;5;5
83597;PMS5003;73565;45.774;15.892;2024-02-23T09:47:23;7;7;5
83597;PMS5003;73565;45.774;15.892;2024-02-23T09:49:23;4;4;3
83597;PMS5003;73565;45.774;15.892;2024-02-23T09:51:23;4;4;3
83597;PMS5003;73565;45.774;15.892;2024-02-23T09:53:23;5;5;5
83597;PMS5003;73565;45.774;15.892;2024-02-23T09:55:23;5;4;4
83597;PMS5003;73565;45.774;15.892;2024-02-23T09:57:23;5;5;5
83597;PMS5003;73565;45.774;15.892;2024-02-23T09:58:17;5;5;3
83597;PMS5003;73565;45.774;15.892;2024-02-23T09:59:32;3;2;2
83597;PMS5003;73565;45.774;15.892;2024-02-23T10:01:32;4;4;4
83597;PMS5003;73565;45.774;15.892;2024-02-23T10:03:32;6;5;4
83597;PMS5003;73565;45.774;15.892;2024-02-23T10:05:33;4;4;3
83597;PMS5003;73565;45.774;15.892;2024-02-23T10:07:32;3;3;3
83597;PMS5003;73565;45.774;15.892;2024-02-23T10:09:32;6;4;4
83597;PMS5003;73565;45.774;15.892;2024-02-23T10:11:32;3;3;3
83597;PMS5003;73565;45.774;15.892;2024-02-23T10:13:32;5;5;5
83597;PMS5003;73565;45.774;15.892;2024-02-23T10:15:32;4;3;3
83597;PMS5003;73565;45.774;15.892;2024-02-23T10:17:32;5;5;4
83597;PMS5003;73565;45.774;15.892;2024-02-23T10:19:33;3;3;3
83597;PMS5003;73565;45.774;15.892;2024-02-23T10:21:32;5;4;4
83597;PMS5003;73565;45.774;15.892;2024-02-23T10:23:32;5;4;4
83597;PMS5003;73565;45.774;15.892;2024-02-23T10:25:32;5;4;4
83597;PMS5003;73565;45.774;15.892;2024-02-23T10:27:32;6;5;4
83597;PMS5003;73565;45.774;15.892;2024-02-23T10:29:32;4;4;3
83597;PMS5003;73565;45.774;15.892;2024-02-23T10:31:33;3;3;3
83597;PMS5003;73565;45.774;15.892;2024-02-23T10:33:32;3;3;3
83597;PMS5003;73565;45.774;15.892;2024-02-23T10:35:32;4;4;3
83597;PMS5003;73565;45.774;15.892;2024-02-23T10:37:32;6;5;4
83597;PMS5003;73565;45.774;15.892;2024-02-23T10:39:32;4;4;3
83597;PMS5003;73565;45.774;15.892;2024-02-23T10:41:32;3;3;3
83597;PMS5003;73565;45.774;15.892;2024-02-23T10:43:32;2;1;1
83597;PMS5003;73565;45.774;15.892;2024-02-23T10:45:32;6;4;3
83597;PMS5003;73565;45.774;15.892;2024-02-23T10:47:32;3;3;3
83597;PMS5003;73565;45.774;15.892;2024-02-23T10:49:32;5;5;4
83597;PMS5003;73565;45.774;15.892;2024-02-23T10:51:32;4;4;3
83597;PMS5003;73565;45.774;15.892;2024-02-23T10:53:32;2;2;2
83597;PMS5003;73565;45.774;15.892;2024-02-23T10:55:32;3;3;3
83597;PMS5003;73565;45.774;15.892;2024-02-23T10:57:32;4;4;4
83597;PMS5003;73565;45.774;15.892;2024-02-23T10:59:32;3;3;3
83597;PMS5003;73565;45.774;15.892;2024-02-23T11:01:32;6;5;4
83597;PMS5003;73565;45.774;15.892;2024-02-23T11:03:32;4;4;3
83597;PMS5003;73565;45.774;15.892;2024-02-23T11:05:51;4;4;3
83597;PMS5003;73565;45.774;15.892;2024-02-23T11:07:51;3;3;2
83597;PMS5003;73565;45.774;15.892;2024-02-23T11:09:52;5;5;5
83597;PMS5003;73565;45.774;15.892;2024-02-23T11:11:57;4;4;4
83597;PMS5003;73565;45.774;15.892;2024-02-23T11:13:51;3;3;2
83597;PMS5003;73565;45.774;15.892;2024-02-23T11:15:51;4;4;4
83597;PMS5003;73565;45.774;15.892;2024-02-23T11:17:51;4;4;3
83597;PMS5003;73565;45.774;15.892;2024-02-23T11:19:53;4;4;3
83597;PMS5003;73565;45.774;15.892;2024-02-23T11:21:52;5;5;4
83597;PMS5003;73565;45.774;15.892;2024-02-23T11:23:51;4;3;3
83597;PMS5003;73565;45.774;15.892;2024-02-23T11:27:52;3;3;3
83597;PMS5003;73565;45.774;15.892;2024-02-23T11:29:52;5;5;4
83597;PMS5003;73565;45.774;15.892;2024-02-23T11:31:51;4;4;4
83597;PMS5003;73565;45.774;15.892;2024-02-23T11:33:54;5;5;5
83597;PMS5003;73565;45.774;15.892;2024-02-23T11:35:51;6;6;4
83597;PMS5003;73565;45.774;15.892;2024-02-23T11:37:52;4;4;4
83597;PMS5003;73565;45.774;15.892;2024-02-23T11:39:51;6;6;4
83597;PMS5003;73565;45.774;15.892;2024-02-23T11:41:51;5;4;3
83597;PMS5003;73565;45.774;15.892;2024-02-23T11:43:51;4;4;4
83597;PMS5003;73565;45.774;15.892;2024-02-23T11:45:51;4;4;3
83597;PMS5003;73565;45.774;15.892;2024-02-23T11:47:51;5;5;5
83597;PMS5003;73565;45.774;15.892;2024-02-23T11:49:51;5;5;4
83597;PMS5003;73565;45.774;15.892;2024-02-23T11:51:51;3;3;3
83597;PMS5003;73565;45.774;15.892;2024-02-23T11:52:15;5;4;3
83597;PMS5003;73565;45.774;15.892;2024-02-23T11:53:42;5;5;4
83597;PMS5003;73565;45.774;15.892;2024-02-23T11:55:42;6;6;5
83597;PMS5003;73565;45.774;15.892;2024-02-23T11:57:42;4;4;3
83597;PMS5003;73565;45.774;15.892;2024-02-23T11:59:44;6;6;5
83597;PMS5003;73565;45.774;15.892;2024-02-23T12:01:42;5;5;4
83597;PMS5003;73565;45.774;15.892;2024-02-23T12:03:42;4;4;3
83597;PMS5003;73565;45.774;15.892;2024-02-23T12:05:42;5;5;4
83597;PMS5003;73565;45.774;15.892;2024-02-23T12:07:42;4;4;4
83597;PMS5003;73565;45.774;15.892;2024-02-23T12:09:42;5;5;4
83597;PMS5003;73565;45.774;15.892;2024-02-23T12:11:42;4;4;3
83597;PMS5003;73565;45.774;15.892;2024-02-23T12:13:42;4;4;3
83597;PMS5003;73565;45.774;15.892;2024-02-23T12:15:42;4;4;4
83597;PMS5003;73565;45.774;15.892;2024-02-23T12:17:50;6;5;4
83597;PMS5003;73565;45.774;15.892;2024-02-23T12:19:42;7;6;4
83597;PMS5003;73565;45.774;15.892;2024-02-23T12:21:42;4;4;3
83597;PMS5003;73565;45.774;15.892;2024-02-23T12:23:45;5;5;4
83597;PMS5003;73565;45.774;15.892;2024-02-23T12:25:57;4;3;3
83597;PMS5003;73565;45.774;15.892;2024-02-23T12:27:59;5;5;5
83597;PMS5003;73565;45.774;15.892;2024-02-23T12:29:56;4;3;3
83597;PMS5003;73565;45.774;15.892;2024-02-23T12:32:06;5;5;5
83597;PMS5003;73565;45.774;15.892;2024-02-23T12:33:56;4;4;3
83597;PMS5003;73565;45.774;15.892;2024-02-23T12:35:57;3;3;3
83597;PMS5003;73565;45.774;15.892;2024-02-23T12:37:56;5;4;4
83597;PMS5003;73565;45.774;15.892;2024-02-23T12:39:56;4;4;4
83597;PMS5003;73565;45.774;15.892;2024-02-23T12:41:56;4;4;4
83597;PMS5003;73565;45.774;15.892;2024-02-23T12:43:56;5;5;4
83597;PMS5003;73565;45.774;15.892;2024-02-23T12:45:57;5;5;3
83597;PMS5003;73565;45.774;15.892;2024-02-23T12:47:56;4;4;3
83597;PMS5003;73565;45.774;15.892;2024-02-23T12:49:56;4;4;3
83597;PMS5003;73565;45.774;15.892;2024-02-23T12:51:56;5;5;4
83597;PMS5003;73565;45.774;15.892;2024-02-23T12:53:56;5;5;4
83597;PMS5003;73565;45.774;15.892;2024-02-23T12:55:56;4;4;3
83597;PMS5003;73565;45.774;15.892;2024-02-23T12:57:56;6;5;4
83597;PMS5003;73565;45.774;15.892;2024-02-23T12:59:56;3;3;2
83597;PMS5003;73565;45.774;15.892;2024-02-23T13:03:49;4;4;4
83597;PMS5003;73565;45.774;15.892;2024-02-23T13:05:49;4;4;3
83597;PMS5003;73565;45.774;15.892;2024-02-23T13:07:49;3;3;3
83597;PMS5003;73565;45.774;15.892;2024-02-23T13:09:49;2;2;2
83597;PMS5003;73565;45.774;15.892;2024-02-23T13:11:49;3;3;3
83597;PMS5003;73565;45.774;15.892;2024-02-23T13:13:49;4;4;2
83597;PMS5003;73565;45.774;15.892;2024-02-23T13:15:50;3;3;2
83597;PMS5003;73565;45.774;15.892;2024-02-23T13:17:49;3;3;3